sensor_id;sensor_type;location;lat;lon;timestamp;pressure;altitude;pressure_sealevel;temperature;humidity
62374;BME280;48409;49.030;1.820;2023-01-01T00:02:00;100480.75;;;14.71;61.78
62374;BME280;48409;49.030;1.820;2023-01-01T00:04:25;100475.47;;;14.71;61.68
62374;BME280;48409;49.030;1.820;2023-01-01T00:06:51;100472.72;;;14.73;61.86
62374;BME280;48409;49.030;1.820;2023-01-01T00:09:16;100474.41;;;14.74;61.94
62374;BME280;48409;49.030;1.820;2023-01-01T00:12:00;100475.25;;;14.74;61.70
62374;BME280;48409;49.030;1.820;2023-01-01T00:14:25;100467.41;;;14.73;61.79
62374;BME280;48409;49.030;1.820;2023-01-01T00:16:53;100471.66;;;14.75;61.76
62374;BME280;48409;49.030;1.820;2023-01-01T00:19:19;100472.72;;;14.73;61.58
62374;BME280;48409;49.030;1.820;2023-01-01T00:21:45;100482.25;;;14.75;61.71
62374;BME280;48409;49.030;1.820;2023-01-01T00:24:11;100494.66;;;14.75;61.61
62374;BME280;48409;49.030;1.820;2023-01-01T00:26:36;100501.72;;;14.76;61.64
62374;BME280;48409;49.030;1.820;2023-01-01T00:29:02;100482.25;;;14.75;61.55
62374;BME280;48409;49.030;1.820;2023-01-01T00:31:28;100487.50;;;14.77;61.53
62374;BME280;48409;49.030;1.820;2023-01-01T00:33:55;100480.41;;;14.78;61.55
62374;BME280;48409;49.030;1.820;2023-01-01T00:36:24;100475.09;;;14.78;61.33
62374;BME280;48409;49.030;1.820;2023-01-01T00:38:49;100475.09;;;14.78;61.53
62374;BME280;48409;49.030;1.820;2023-01-01T00:41:16;100489.09;;;14.80;61.61
62374;BME280;48409;49.030;1.820;2023-01-01T00:43:42;100488.22;;;14.79;61.49
62374;BME280;48409;49.030;1.820;2023-01-01T00:46:09;100474.03;;;14.80;61.54
62374;BME280;48409;49.030;1.820;2023-01-01T00:48:34;100481.03;;;14.81;61.52
62374;BME280;48409;49.030;1.820;2023-01-01T00:51:00;100495.25;;;14.80;61.55
62374;BME280;48409;49.030;1.820;2023-01-01T00:53:26;100489.94;;;14.80;61.64
62374;BME280;48409;49.030;1.820;2023-01-01T00:55:51;100486.34;;;14.81;61.42
62374;BME280;48409;49.030;1.820;2023-01-01T00:58:18;100483.69;;;14.81;61.47
62374;BME280;48409;49.030;1.820;2023-01-01T01:00:44;100494.19;;;14.83;61.46
62374;BME280;48409;49.030;1.820;2023-01-01T01:03:11;100518.16;;;14.81;61.43
62374;BME280;48409;49.030;1.820;2023-01-01T01:08:24;100501.28;;;14.82;61.54
62374;BME280;48409;49.030;1.820;2023-01-01T01:10:49;100502.16;;;14.83;61.55
62374;BME280;48409;49.030;1.820;2023-01-01T01:13:15;100498.63;;;14.82;61.53
62374;BME280;48409;49.030;1.820;2023-01-01T01:15:40;100497.78;;;14.82;61.50
62374;BME280;48409;49.030;1.820;2023-01-01T01:18:06;100510.09;;;14.83;61.58
62374;BME280;48409;49.030;1.820;2023-01-01T01:20:34;100515.41;;;14.83;61.41
62374;BME280;48409;49.030;1.820;2023-01-01T01:23:00;100510.09;;;14.83;61.41
62374;BME280;48409;49.030;1.820;2023-01-01T01:25:25;100510.00;;;14.84;61.38
62374;BME280;48409;49.030;1.820;2023-01-01T01:27:51;100509.22;;;14.82;61.32
62374;BME280;48409;49.030;1.820;2023-01-01T01:30:16;100510.00;;;14.84;61.42
62374;BME280;48409;49.030;1.820;2023-01-01T01:32:42;100506.50;;;14.84;61.47
62374;BME280;48409;49.030;1.820;2023-01-01T01:35:07;100508.28;;;14.83;61.21
62374;BME280;48409;49.030;1.820;2023-01-01T01:37:33;100504.69;;;14.84;61.41
62374;BME280;48409;49.030;1.820;2023-01-01T01:39:58;100510.94;;;14.83;61.18
62374;BME280;48409;49.030;1.820;2023-01-01T01:42:23;100510.00;;;14.84;61.31
62374;BME280;48409;49.030;1.820;2023-01-01T01:44:55;100515.31;;;14.84;61.25
62374;BME280;48409;49.030;1.820;2023-01-01T01:50:02;100538.31;;;14.84;61.27
62374;BME280;48409;49.030;1.820;2023-01-01T01:52:32;100548.91;;;14.84;61.41
62374;BME280;48409;49.030;1.820;2023-01-01T01:54:59;100548.03;;;14.83;61.25
62374;BME280;48409;49.030;1.820;2023-01-01T01:57:26;100556.88;;;14.84;61.27
62374;BME280;48409;49.030;1.820;2023-01-01T01:59:54;100565.69;;;14.84;61.24
62374;BME280;48409;49.030;1.820;2023-01-01T02:02:36;100558.66;;;14.83;61.51
62374;BME280;48409;49.030;1.820;2023-01-01T02:05:03;100561.31;;;14.83;61.42
62374;BME280;48409;49.030;1.820;2023-01-01T02:07:29;100552.53;;;14.83;61.39
62374;BME280;48409;49.030;1.820;2023-01-01T02:09:57;100554.22;;;14.84;61.42
62374;BME280;48409;49.030;1.820;2023-01-01T02:12:23;100549.78;;;14.84;61.21
62374;BME280;48409;49.030;1.820;2023-01-01T02:14:48;100555.91;;;14.85;61.05
62374;BME280;48409;49.030;1.820;2023-01-01T02:20:24;100548.03;;;14.83;61.26
62374;BME280;48409;49.030;1.820;2023-01-01T02:29:01;100571.19;;;14.81;61.44
62374;BME280;48409;49.030;1.820;2023-01-01T02:31:38;100572.13;;;14.80;61.33
62374;BME280;48409;49.030;1.820;2023-01-01T02:34:08;100558.13;;;14.78;61.27
62374;BME280;48409;49.030;1.820;2023-01-01T02:36:39;100565.97;;;14.80;61.39
62374;BME280;48409;49.030;1.820;2023-01-01T02:39:06;100564.28;;;14.79;61.27
62374;BME280;48409;49.030;1.820;2023-01-01T02:41:38;100570.53;;;14.78;61.23
62374;BME280;48409;49.030;1.820;2023-01-01T02:44:04;100571.38;;;14.78;61.35
62374;BME280;48409;49.030;1.820;2023-01-01T02:46:34;100573.06;;;14.79;61.40
62374;BME280;48409;49.030;1.820;2023-01-01T02:49:01;100565.09;;;14.79;61.41
62374;BME280;48409;49.030;1.820;2023-01-01T02:54:07;100563.41;;;14.78;61.38
62374;BME280;48409;49.030;1.820;2023-01-01T02:56:50;100584.63;;;14.78;61.40
62374;BME280;48409;49.030;1.820;2023-01-01T03:10:06;100575.94;;;14.76;61.43
62374;BME280;48409;49.030;1.820;2023-01-01T03:15:50;100586.69;;;14.73;61.50
62374;BME280;48409;49.030;1.820;2023-01-01T03:18:46;100599.97;;;14.73;61.38
62374;BME280;48409;49.030;1.820;2023-01-01T03:21:57;100594.66;;;14.73;61.59
62374;BME280;48409;49.030;1.820;2023-01-01T03:26:52;100600.16;;;14.70;61.56
62374;BME280;48409;49.030;1.820;2023-01-01T03:29:20;100607.28;;;14.69;61.57
62374;BME280;48409;49.030;1.820;2023-01-01T03:31:47;100607.19;;;14.71;61.60
62374;BME280;48409;49.030;1.820;2023-01-01T03:34:19;100620.44;;;14.71;61.70
62374;BME280;48409;49.030;1.820;2023-01-01T03:36:50;100616.91;;;14.70;61.60
62374;BME280;48409;49.030;1.820;2023-01-01T03:39:31;100619.47;;;14.72;61.75
62374;BME280;48409;49.030;1.820;2023-01-01T03:44:40;100620.44;;;14.71;61.68
62374;BME280;48409;49.030;1.820;2023-01-01T03:47:08;100619.47;;;14.72;61.68
62374;BME280;48409;49.030;1.820;2023-01-01T03:49:33;100614.16;;;14.72;61.85
62374;BME280;48409;49.030;1.820;2023-01-01T03:55:26;100617.78;;;14.71;61.69
62374;BME280;48409;49.030;1.820;2023-01-01T04:00:50;100628.38;;;14.71;61.69
62374;BME280;48409;49.030;1.820;2023-01-01T04:03:23;100637.25;;;14.70;61.76
62374;BME280;48409;49.030;1.820;2023-01-01T04:05:50;100627.53;;;14.70;61.68
62374;BME280;48409;49.030;1.820;2023-01-01T04:08:18;100624.97;;;14.69;61.83
62374;BME280;48409;49.030;1.820;2023-01-01T04:10:50;100617.88;;;14.69;61.78
62374;BME280;48409;49.030;1.820;2023-01-01T04:13:17;100620.53;;;14.69;61.88
62374;BME280;48409;49.030;1.820;2023-01-01T04:15:43;100619.66;;;14.69;61.83
62374;BME280;48409;49.030;1.820;2023-01-01T04:18:08;100617.78;;;14.71;61.85
62374;BME280;48409;49.030;1.820;2023-01-01T04:20:34;100631.88;;;14.71;61.66
62374;BME280;48409;49.030;1.820;2023-01-01T04:23:00;100624.00;;;14.70;61.74
62374;BME280;48409;49.030;1.820;2023-01-01T04:25:27;100630.06;;;14.72;61.79
62374;BME280;48409;49.030;1.820;2023-01-01T04:27:53;100639.00;;;14.71;61.87
62374;BME280;48409;49.030;1.820;2023-01-01T04:30:18;100639.00;;;14.71;61.87
62374;BME280;48409;49.030;1.820;2023-01-01T04:32:44;100632.72;;;14.72;61.87
62374;BME280;48409;49.030;1.820;2023-01-01T04:35:12;100639.00;;;14.71;61.85
62374;BME280;48409;49.030;1.820;2023-01-01T04:37:40;100645.13;;;14.71;61.98
62374;BME280;48409;49.030;1.820;2023-01-01T04:40:07;100646.94;;;14.71;61.90
62374;BME280;48409;49.030;1.820;2023-01-01T04:42:36;100658.38;;;14.71;61.83
62374;BME280;48409;49.030;1.820;2023-01-01T04:45:02;100656.59;;;14.72;61.94
62374;BME280;48409;49.030;1.820;2023-01-01T04:47:27;100661.88;;;14.72;61.82
62374;BME280;48409;49.030;1.820;2023-01-01T04:49:53;100656.59;;;14.72;61.78
62374;BME280;48409;49.030;1.820;2023-01-01T04:52:18;100644.28;;;14.71;61.82
62374;BME280;48409;49.030;1.820;2023-01-01T04:54:44;100651.28;;;14.72;61.68
62374;BME280;48409;49.030;1.820;2023-01-01T04:57:09;100664.53;;;14.72;61.94
62374;BME280;48409;49.030;1.820;2023-01-01T04:59:35;100666.22;;;14.73;61.74
62374;BME280;48409;49.030;1.820;2023-01-01T05:02:00;100672.50;;;14.72;61.77
62374;BME280;48409;49.030;1.820;2023-01-01T05:04:25;100678.63;;;14.72;61.83
62374;BME280;48409;49.030;1.820;2023-01-01T05:06:51;100678.63;;;14.72;61.93
62374;BME280;48409;49.030;1.820;2023-01-01T05:09:16;100688.41;;;14.72;62.04
62374;BME280;48409;49.030;1.820;2023-01-01T05:11:41;100695.41;;;14.73;61.91
62374;BME280;48409;49.030;1.820;2023-01-01T05:14:07;100676.09;;;14.71;61.78
62374;BME280;48409;49.030;1.820;2023-01-01T05:16:35;100685.75;;;14.72;61.88
62374;BME280;48409;49.030;1.820;2023-01-01T05:19:02;100684.78;;;14.73;61.96
62374;BME280;48409;49.030;1.820;2023-01-01T05:21:29;100681.41;;;14.71;61.95
62374;BME280;48409;49.030;1.820;2023-01-01T05:24:03;100686.72;;;14.71;61.94
62374;BME280;48409;49.030;1.820;2023-01-01T05:26:34;100672.50;;;14.72;61.86
62374;BME280;48409;49.030;1.820;2023-01-01T05:29:00;100663.78;;;14.70;61.84
62374;BME280;48409;49.030;1.820;2023-01-01T05:31:31;100669.94;;;14.70;61.92
62374;BME280;48409;49.030;1.820;2023-01-01T05:33:57;100686.72;;;14.71;61.92
62374;BME280;48409;49.030;1.820;2023-01-01T05:36:26;100709.78;;;14.69;61.83
62374;BME280;48409;49.030;1.820;2023-01-01T05:38:51;100726.75;;;14.66;61.94
62374;BME280;48409;49.030;1.820;2023-01-01T05:41:19;100728.44;;;14.67;61.99
62374;BME280;48409;49.030;1.820;2023-01-01T05:43:45;100717.00;;;14.67;62.07
62374;BME280;48409;49.030;1.820;2023-01-01T05:46:16;100720.59;;;14.66;61.90
62374;BME280;48409;49.030;1.820;2023-01-01T05:48:42;100710.84;;;14.66;61.99
62374;BME280;48409;49.030;1.820;2023-01-01T05:51:22;100707.31;;;14.66;62.09
62374;BME280;48409;49.030;1.820;2023-01-01T05:53:49;100695.03;;;14.65;62.02
62374;BME280;48409;49.030;1.820;2023-01-01T05:56:15;100700.34;;;14.65;61.96
62374;BME280;48409;49.030;1.820;2023-01-01T05:58:41;100708.28;;;14.65;62.15
62374;BME280;48409;49.030;1.820;2023-01-01T06:01:28;100711.81;;;14.65;62.14
62374;BME280;48409;49.030;1.820;2023-01-01T06:03:55;100704.81;;;14.64;62.04
62374;BME280;48409;49.030;1.820;2023-01-01T06:06:27;100704.81;;;14.64;62.01
62374;BME280;48409;49.030;1.820;2023-01-01T06:08:55;100689.00;;;14.62;62.10
62374;BME280;48409;49.030;1.820;2023-01-01T06:11:21;100697.88;;;14.61;62.16
62374;BME280;48409;49.030;1.820;2023-01-01T06:13:47;100704.91;;;14.62;62.02
62374;BME280;48409;49.030;1.820;2023-01-01T06:16:15;100702.34;;;14.61;62.15
62374;BME280;48409;49.030;1.820;2023-01-01T06:18:40;100720.88;;;14.61;62.15
62374;BME280;48409;49.030;1.820;2023-01-01T06:23:35;100720.97;;;14.59;62.00
62374;BME280;48409;49.030;1.820;2023-01-01T06:26:19;100735.09;;;14.60;62.11
62374;BME280;48409;49.030;1.820;2023-01-01T06:28:45;100731.59;;;14.59;62.39
62374;BME280;48409;49.030;1.820;2023-01-01T06:31:13;100723.72;;;14.58;62.10
62374;BME280;48409;49.030;1.820;2023-01-01T06:33:39;100735.19;;;14.58;62.20
62374;BME280;48409;49.030;1.820;2023-01-01T06:36:06;100730.72;;;14.59;62.20
62374;BME280;48409;49.030;1.820;2023-01-01T06:38:33;100733.38;;;14.59;62.28
62374;BME280;48409;49.030;1.820;2023-01-01T06:41:01;100732.53;;;14.58;62.11
62374;BME280;48409;49.030;1.820;2023-01-01T06:43:29;100735.19;;;14.58;62.24
62374;BME280;48409;49.030;1.820;2023-01-01T06:46:03;100748.44;;;14.58;62.18
62374;BME280;48409;49.030;1.820;2023-01-01T06:48:31;100745.78;;;14.58;62.34
62374;BME280;48409;49.030;1.820;2023-01-01T06:50:57;100758.09;;;14.59;62.09
62374;BME280;48409;49.030;1.820;2023-01-01T06:53:25;100748.44;;;14.58;62.26
62374;BME280;48409;49.030;1.820;2023-01-01T06:55:51;100764.34;;;14.58;62.15
62374;BME280;48409;49.030;1.820;2023-01-01T06:58:17;100767.91;;;14.57;62.26
62374;BME280;48409;49.030;1.820;2023-01-01T07:00:42;100769.66;;;14.58;62.27
62374;BME280;48409;49.030;1.820;2023-01-01T07:03:11;100769.66;;;14.58;62.25
62374;BME280;48409;49.030;1.820;2023-01-01T07:05:36;100777.59;;;14.58;62.36
62374;BME280;48409;49.030;1.820;2023-01-01T07:08:02;100782.91;;;14.58;62.43
62374;BME280;48409;49.030;1.820;2023-01-01T07:10:27;100786.47;;;14.57;62.29
62374;BME280;48409;49.030;1.820;2023-01-01T07:12:53;100795.38;;;14.56;62.06
62374;BME280;48409;49.030;1.820;2023-01-01T07:15:18;100799.72;;;14.57;62.42
62374;BME280;48409;49.030;1.820;2023-01-01T07:17:43;100797.06;;;14.57;62.26
62374;BME280;48409;49.030;1.820;2023-01-01T07:20:09;100800.69;;;14.56;62.43
62374;BME280;48409;49.030;1.820;2023-01-01T07:22:36;100802.38;;;14.57;62.44
62374;BME280;48409;49.030;1.820;2023-01-01T07:25:03;100805.97;;;14.56;62.37
62374;BME280;48409;49.030;1.820;2023-01-01T07:27:28;100812.97;;;14.57;62.41
62374;BME280;48409;49.030;1.820;2023-01-01T07:29:53;100805.97;;;14.56;62.44
62374;BME280;48409;49.030;1.820;2023-01-01T07:32:19;100829.84;;;14.56;62.48
62374;BME280;48409;49.030;1.820;2023-01-01T07:34:44;100848.38;;;14.56;62.54
62374;BME280;48409;49.030;1.820;2023-01-01T07:37:09;100838.75;;;14.55;62.35
62374;BME280;48409;49.030;1.820;2023-01-01T07:39:35;100830.78;;;14.55;62.15
62374;BME280;48409;49.030;1.820;2023-01-01T07:42:00;100830.78;;;14.55;62.43
62374;BME280;48409;49.030;1.820;2023-01-01T07:44:26;100833.44;;;14.55;62.39
62374;BME280;48409;49.030;1.820;2023-01-01T07:47:03;100810.44;;;14.56;62.18
62374;BME280;48409;49.030;1.820;2023-01-01T07:49:29;100811.38;;;14.55;62.39
62374;BME280;48409;49.030;1.820;2023-01-01T07:51:54;100813.19;;;14.54;62.40
62374;BME280;48409;49.030;1.820;2023-01-01T07:54:19;100829.09;;;14.54;62.56
62374;BME280;48409;49.030;1.820;2023-01-01T07:56:45;100829.09;;;14.54;62.46
62374;BME280;48409;49.030;1.820;2023-01-01T07:59:10;100834.41;;;14.54;62.62
62374;BME280;48409;49.030;1.820;2023-01-01T08:01:36;100848.59;;;14.53;62.60
62374;BME280;48409;49.030;1.820;2023-01-01T08:04:02;100836.09;;;14.55;62.46
62374;BME280;48409;49.030;1.820;2023-01-01T08:06:27;100845.00;;;14.54;62.56
62374;BME280;48409;49.030;1.820;2023-01-01T08:08:53;100839.69;;;14.54;62.62
62374;BME280;48409;49.030;1.820;2023-01-01T08:11:18;100843.28;;;14.53;62.57
62374;BME280;48409;49.030;1.820;2023-01-01T08:13:44;100864.50;;;14.53;62.68
62374;BME280;48409;49.030;1.820;2023-01-01T08:16:09;100859.19;;;14.53;62.61
62374;BME280;48409;49.030;1.820;2023-01-01T08:18:35;100853.91;;;14.53;62.49
62374;BME280;48409;49.030;1.820;2023-01-01T08:21:03;100857.47;;;14.52;62.54
62374;BME280;48409;49.030;1.820;2023-01-01T08:23:29;100856.63;;;14.52;62.54
62374;BME280;48409;49.030;1.820;2023-01-01T08:25:59;100857.47;;;14.52;62.77
62374;BME280;48409;49.030;1.820;2023-01-01T08:28:25;100859.19;;;14.53;62.66
62374;BME280;48409;49.030;1.820;2023-01-01T08:30:51;100857.56;;;14.51;62.61
62374;BME280;48409;49.030;1.820;2023-01-01T08:33:16;100852.25;;;14.51;62.67
62374;BME280;48409;49.030;1.820;2023-01-01T08:35:42;100855.94;;;14.48;62.73
62374;BME280;48409;49.030;1.820;2023-01-01T08:38:12;100845.34;;;14.48;62.83
62374;BME280;48409;49.030;1.820;2023-01-01T08:40:38;100842.69;;;14.48;62.67
62374;BME280;48409;49.030;1.820;2023-01-01T08:43:04;100851.59;;;14.47;62.65
62374;BME280;48409;49.030;1.820;2023-01-01T08:45:29;100850.66;;;14.48;62.68
62374;BME280;48409;49.030;1.820;2023-01-01T08:47:55;100853.31;;;14.48;62.76
62374;BME280;48409;49.030;1.820;2023-01-01T08:50:20;100851.50;;;14.48;62.82
62374;BME280;48409;49.030;1.820;2023-01-01T08:53:02;100852.38;;;14.49;62.64
62374;BME280;48409;49.030;1.820;2023-01-01T08:55:27;100854.91;;;14.51;62.87
62374;BME280;48409;49.030;1.820;2023-01-01T08:57:53;100851.44;;;14.50;62.78
62374;BME280;48409;49.030;1.820;2023-01-01T09:00:19;100854.91;;;14.51;62.86
62374;BME280;48409;49.030;1.820;2023-01-01T09:02:44;100861.94;;;14.52;62.82
62374;BME280;48409;49.030;1.820;2023-01-01T09:05:09;100862.78;;;14.52;62.79
62374;BME280;48409;49.030;1.820;2023-01-01T09:07:35;100863.63;;;14.53;63.20
62374;BME280;48409;49.030;1.820;2023-01-01T09:10:00;100857.47;;;14.52;62.88
62374;BME280;48409;49.030;1.820;2023-01-01T09:12:26;100843.28;;;14.53;62.89
62374;BME280;48409;49.030;1.820;2023-01-01T09:14:51;100836.19;;;14.54;62.89
62374;BME280;48409;49.030;1.820;2023-01-01T09:17:16;100844.13;;;14.54;62.92
62374;BME280;48409;49.030;1.820;2023-01-01T09:19:42;100838.00;;;14.53;63.02
62374;BME280;48409;49.030;1.820;2023-01-01T09:22:09;100853.78;;;14.55;62.87
62374;BME280;48409;49.030;1.820;2023-01-01T09:24:34;100853.78;;;14.55;62.99
62374;BME280;48409;49.030;1.820;2023-01-01T09:27:00;100852.84;;;14.56;63.04
62374;BME280;48409;49.030;1.820;2023-01-01T09:29:25;100859.00;;;14.56;62.94
62374;BME280;48409;49.030;1.820;2023-01-01T09:31:50;100856.34;;;14.56;63.02
62374;BME280;48409;49.030;1.820;2023-01-01T09:34:16;100855.38;;;14.57;63.03
62374;BME280;48409;49.030;1.820;2023-01-01T09:36:42;100859.00;;;14.56;63.13
62374;BME280;48409;49.030;1.820;2023-01-01T09:39:10;100861.56;;;14.58;62.99
62374;BME280;48409;49.030;1.820;2023-01-01T09:46:44;100874.91;;;14.56;62.97
62374;BME280;48409;49.030;1.820;2023-01-01T09:51:58;100888.06;;;14.58;63.20
62374;BME280;48409;49.030;1.820;2023-01-01T09:54:49;100894.31;;;14.57;63.10
62374;BME280;48409;49.030;1.820;2023-01-01T09:57:16;100898.56;;;14.59;63.08
62374;BME280;48409;49.030;1.820;2023-01-01T09:59:41;100894.22;;;14.58;63.04
62374;BME280;48409;49.030;1.820;2023-01-01T10:05:04;100905.66;;;14.59;63.05
62374;BME280;48409;49.030;1.820;2023-01-01T10:07:43;100909.28;;;14.58;63.16
62374;BME280;48409;49.030;1.820;2023-01-01T10:15:57;100908.22;;;14.60;63.17
62374;BME280;48409;49.030;1.820;2023-01-01T10:18:26;100906.53;;;14.59;63.18
62374;BME280;48409;49.030;1.820;2023-01-01T10:21:22;100917.13;;;14.59;63.28
62374;BME280;48409;49.030;1.820;2023-01-01T10:23:54;100890.63;;;14.59;63.21
62374;BME280;48409;49.030;1.820;2023-01-01T10:26:24;100893.28;;;14.59;63.12
62374;BME280;48409;49.030;1.820;2023-01-01T10:28:59;100893.28;;;14.59;63.32
62374;BME280;48409;49.030;1.820;2023-01-01T10:31:35;100886.19;;;14.60;63.20
62374;BME280;48409;49.030;1.820;2023-01-01T10:34:21;100890.63;;;14.59;63.49
62374;BME280;48409;49.030;1.820;2023-01-01T10:36:54;100888.84;;;14.60;63.32
62374;BME280;48409;49.030;1.820;2023-01-01T10:39:20;100882.66;;;14.59;63.23
62374;BME280;48409;49.030;1.820;2023-01-01T10:41:46;100884.38;;;14.60;63.23
62374;BME280;48409;49.030;1.820;2023-01-01T10:44:12;100878.13;;;14.61;63.08
62374;BME280;48409;49.030;1.820;2023-01-01T10:46:47;100871.13;;;14.60;63.17
62374;BME280;48409;49.030;1.820;2023-01-01T10:49:13;100867.50;;;14.61;63.23
62374;BME280;48409;49.030;1.820;2023-01-01T10:51:45;100867.50;;;14.61;63.30
62374;BME280;48409;49.030;1.820;2023-01-01T10:59:40;100856.91;;;14.61;63.17
62374;BME280;48409;49.030;1.820;2023-01-01T11:04:43;100840.16;;;14.61;63.31
62374;BME280;48409;49.030;1.820;2023-01-01T11:07:16;100837.53;;;14.61;63.41
62374;BME280;48409;49.030;1.820;2023-01-01T11:09:47;100834.00;;;14.60;63.14
62374;BME280;48409;49.030;1.820;2023-01-01T11:12:22;100836.56;;;14.62;63.32
62374;BME280;48409;49.030;1.820;2023-01-01T11:14:52;100827.75;;;14.61;63.15
62374;BME280;48409;49.030;1.820;2023-01-01T11:17:24;100820.75;;;14.60;63.25
62374;BME280;48409;49.030;1.820;2023-01-01T11:19:50;100819.81;;;14.61;63.08
62374;BME280;48409;49.030;1.820;2023-01-01T11:22:43;100819.81;;;14.61;63.29
62374;BME280;48409;49.030;1.820;2023-01-01T11:25:25;100819.81;;;14.61;63.33
62374;BME280;48409;49.030;1.820;2023-01-01T11:33:16;100823.59;;;14.57;63.22
62374;BME280;48409;49.030;1.820;2023-01-01T11:35:50;100813.94;;;14.56;63.37
62374;BME280;48409;49.030;1.820;2023-01-01T11:38:18;100805.16;;;14.56;63.29
62374;BME280;48409;49.030;1.820;2023-01-01T11:40:47;100795.38;;;14.56;63.33
62374;BME280;48409;49.030;1.820;2023-01-01T11:43:24;100786.47;;;14.57;63.25
62374;BME280;48409;49.030;1.820;2023-01-01T11:45:53;100778.53;;;14.57;63.40
62374;BME280;48409;49.030;1.820;2023-01-01T11:48:27;100781.16;;;14.57;63.34
62374;BME280;48409;49.030;1.820;2023-01-01T11:50:56;100775.03;;;14.57;63.52
62374;BME280;48409;49.030;1.820;2023-01-01T12:03:50;100764.34;;;14.58;63.47
62374;BME280;48409;49.030;1.820;2023-01-01T12:06:22;100770.38;;;14.60;63.65
62374;BME280;48409;49.030;1.820;2023-01-01T12:11:38;100758.28;;;14.56;63.23
62374;BME280;48409;49.030;1.820;2023-01-01T12:14:18;100751.28;;;14.55;63.51
62374;BME280;48409;49.030;1.820;2023-01-01T12:16:57;100747.88;;;14.53;63.59
62374;BME280;48409;49.030;1.820;2023-01-01T12:22:15;100734.63;;;14.53;63.41
62374;BME280;48409;49.030;1.820;2023-01-01T12:24:41;100740.03;;;14.52;63.37
62374;BME280;48409;49.030;1.820;2023-01-01T12:32:58;100726.69;;;14.53;63.66
62374;BME280;48409;49.030;1.820;2023-01-01T12:41:47;100720.69;;;14.49;63.58
62374;BME280;48409;49.030;1.820;2023-01-01T12:47:31;100711.91;;;14.49;63.65
62374;BME280;48409;49.030;1.820;2023-01-01T12:58:22;100705.84;;;14.47;63.58
62374;BME280;48409;49.030;1.820;2023-01-01T13:01:00;100705.84;;;14.47;63.62
62374;BME280;48409;49.030;1.820;2023-01-01T13:03:48;100699.72;;;14.46;63.72
62374;BME280;48409;49.030;1.820;2023-01-01T13:11:40;100689.09;;;14.46;63.76
62374;BME280;48409;49.030;1.820;2023-01-01T13:14:06;100686.47;;;14.46;63.68
62374;BME280;48409;49.030;1.820;2023-01-01T13:19:01;100677.56;;;14.47;63.69
62374;BME280;48409;49.030;1.820;2023-01-01T13:21:26;100669.59;;;14.47;63.77
62374;BME280;48409;49.030;1.820;2023-01-01T13:23:59;100660.78;;;14.47;63.88
62374;BME280;48409;49.030;1.820;2023-01-01T13:26:30;100665.03;;;14.49;63.71
62374;BME280;48409;49.030;1.820;2023-01-01T13:56:53;100604.78;;;14.39;63.86
62374;BME280;48409;49.030;1.820;2023-01-01T14:02:21;100591.63;;;14.37;63.91
62374;BME280;48409;49.030;1.820;2023-01-01T14:08:04;100575.84;;;14.35;64.01
62374;BME280;48409;49.030;1.820;2023-01-01T14:10:36;100574.03;;;14.36;63.91
62374;BME280;48409;49.030;1.820;2023-01-01T14:15:37;100569.78;;;14.33;63.94
62374;BME280;48409;49.030;1.820;2023-01-01T14:18:15;100560.88;;;14.34;64.05
62374;BME280;48409;49.030;1.820;2023-01-01T14:20:52;100556.53;;;14.33;64.00
62374;BME280;48409;49.030;1.820;2023-01-01T14:25:49;100542.53;;;14.31;63.99
62374;BME280;48409;49.030;1.820;2023-01-01T14:28:25;100523.03;;;14.32;64.01
62374;BME280;48409;49.030;1.820;2023-01-01T14:30:52;100528.34;;;14.32;63.99
62374;BME280;48409;49.030;1.820;2023-01-01T14:33:31;100526.66;;;14.31;64.15
62374;BME280;48409;49.030;1.820;2023-01-01T14:36:02;100526.66;;;14.31;64.23
62374;BME280;48409;49.030;1.820;2023-01-01T14:38:30;100534.59;;;14.31;63.97
62374;BME280;48409;49.030;1.820;2023-01-01T14:43:49;100528.53;;;14.29;64.13
62374;BME280;48409;49.030;1.820;2023-01-01T14:46:18;100519.84;;;14.27;64.08
62374;BME280;48409;49.030;1.820;2023-01-01T14:48:49;100519.00;;;14.27;63.99
62374;BME280;48409;49.030;1.820;2023-01-01T14:51:21;100521.53;;;14.28;64.11
62374;BME280;48409;49.030;1.820;2023-01-01T14:53:48;100523.44;;;14.26;63.97
62374;BME280;48409;49.030;1.820;2023-01-01T14:56:31;100521.72;;;14.25;64.15
62374;BME280;48409;49.030;1.820;2023-01-01T15:01:32;100513.88;;;14.23;64.21
62374;BME280;48409;49.030;1.820;2023-01-01T15:04:03;100514.75;;;14.24;64.23
62374;BME280;48409;49.030;1.820;2023-01-01T15:06:30;100512.19;;;14.22;64.16
62374;BME280;48409;49.030;1.820;2023-01-01T15:08:56;100499.91;;;14.21;64.15
62374;BME280;48409;49.030;1.820;2023-01-01T15:11:22;100508.72;;;14.22;64.25
62374;BME280;48409;49.030;1.820;2023-01-01T15:17:09;100497.34;;;14.20;64.40
62374;BME280;48409;49.030;1.820;2023-01-01T15:19:37;100500.00;;;14.20;64.20
62374;BME280;48409;49.030;1.820;2023-01-01T15:22:11;100502.66;;;14.20;64.11
62374;BME280;48409;49.030;1.820;2023-01-01T15:24:38;100515.16;;;14.18;64.38
62374;BME280;48409;49.030;1.820;2023-01-01T15:27:05;100508.13;;;14.17;64.46
62374;BME280;48409;49.030;1.820;2023-01-01T15:29:39;100498.41;;;14.17;64.30
62374;BME280;48409;49.030;1.820;2023-01-01T15:32:10;100491.41;;;14.16;64.29
62374;BME280;48409;49.030;1.820;2023-01-01T15:37:41;100498.50;;;14.16;64.53
62374;BME280;48409;49.030;1.820;2023-01-01T15:45:26;100493.28;;;14.14;64.45
62374;BME280;48409;49.030;1.820;2023-01-01T15:47:53;100496.78;;;14.15;64.40
62374;BME280;48409;49.030;1.820;2023-01-01T15:50:30;100494.34;;;14.12;64.38
62374;BME280;48409;49.030;1.820;2023-01-01T15:52:59;100492.66;;;14.10;64.33
62374;BME280;48409;49.030;1.820;2023-01-01T15:55:28;100497.06;;;14.10;64.39
62374;BME280;48409;49.030;1.820;2023-01-01T15:57:55;100488.22;;;14.11;64.40